createdAt,value
2023-04-22T00:01:30.302Z,100893.53
2023-04-22T00:04:32.035Z,100884.88
2023-04-22T00:07:33.781Z,100883.41
2023-04-22T00:10:35.313Z,100875.59
2023-04-22T00:13:37.289Z,100870.59
2023-04-22T00:16:39.317Z,100864.59
2023-04-22T00:19:41.906Z,100849.78
2023-04-22T00:22:43.476Z,100844.78
2023-04-22T00:25:45.302Z,100844.25
2023-04-22T00:28:46.888Z,100846.16
2023-04-22T00:31:48.686Z,100836.66
2023-04-22T00:34:50.495Z,100829.72
2023-04-22T00:37:52.035Z,100824.63
2023-04-22T00:40:53.599Z,100831.84
2023-04-22T00:43:55.417Z,100831.91
2023-04-22T00:46:57.216Z,100825.72
2023-04-22T00:49:59.274Z,100826.78
2023-04-22T00:53:00.924Z,100817.13
2023-04-22T00:56:02.584Z,100812.84
2023-04-22T00:59:04.705Z,100814.00
2023-04-22T01:02:07.268Z,100810.59
2023-04-22T01:05:09.660Z,100810.78
2023-04-22T01:08:12.296Z,100810.91
2023-04-22T01:11:14.139Z,100802.16
2023-04-22T01:14:16.101Z,100804.16
2023-04-22T01:17:19.444Z,100796.38
2023-04-22T01:20:22.842Z,100794.88
2023-04-22T01:23:24.401Z,100793.28
2023-04-22T01:26:26.083Z,100795.28
2023-04-22T01:29:27.775Z,100784.94
2023-04-22T01:32:30.833Z,100792.28
2023-04-22T01:35:37.106Z,100786.31
2023-04-22T01:41:41.580Z,100795.44
2023-04-22T01:44:43.210Z,100789.47
2023-04-22T01:47:44.867Z,100784.25
2023-04-22T01:50:46.446Z,100787.00
2023-04-22T01:53:51.479Z,100780.94
2023-04-22T01:56:54.681Z,100776.66
2023-04-22T01:59:56.346Z,100788.34
2023-04-22T02:02:57.979Z,100783.03
2023-04-22T02:05:59.580Z,100777.72
2023-04-22T02:09:01.130Z,100781.22
2023-04-22T02:12:02.837Z,100785.88
2023-04-22T02:15:05.100Z,100773.63
2023-04-22T02:18:08.182Z,100773.84
2023-04-22T02:21:09.902Z,100765.97
2023-04-22T02:24:11.511Z,100765.97
2023-04-22T02:27:13.026Z,100769.38
2023-04-22T02:30:14.775Z,100770.44
2023-04-22T02:33:16.308Z,100762.47
2023-04-22T02:36:17.876Z,100769.59
2023-04-22T02:39:19.422Z,100767.00
2023-04-22T02:42:21.008Z,100761.69
2023-04-22T02:45:22.963Z,100757.34
2023-04-22T02:48:24.460Z,100758.09
2023-04-22T02:51:26.782Z,100744.91
2023-04-22T02:54:28.350Z,100753.81
2023-04-22T02:57:30.093Z,100746.78
2023-04-22T03:00:31.764Z,100745.19
2023-04-22T03:03:33.709Z,100747.09
2023-04-22T03:06:35.365Z,100750.81
2023-04-22T03:09:37.170Z,100741.97
2023-04-22T03:12:39.028Z,100739.41
2023-04-22T03:15:41.554Z,100732.50
2023-04-22T03:18:43.105Z,100727.56
2023-04-22T03:21:44.646Z,100727.13
2023-04-22T03:24:46.388Z,100726.75
2023-04-22T03:27:48.027Z,100721.84
2023-04-22T03:30:49.557Z,100719.63
2023-04-22T03:33:51.148Z,100716.31
2023-04-22T03:36:52.791Z,100715.56
2023-04-22T03:39:54.391Z,100719.13
2023-04-22T03:42:56.187Z,100710.41
2023-04-22T03:45:57.807Z,100707.75
2023-04-22T03:48:59.400Z,100709.50
2023-04-22T03:52:01.462Z,100705.84
2023-04-22T03:55:03.111Z,100702.25
2023-04-22T03:58:04.696Z,100698.66
2023-04-22T04:01:06.626Z,100706.53
2023-04-22T04:04:08.394Z,100696.75
2023-04-22T04:07:10.236Z,100706.53
2023-04-22T04:10:12.115Z,100705.59
2023-04-22T04:13:13.657Z,100706.34
2023-04-22T04:16:15.332Z,100689.38
2023-04-22T04:19:16.960Z,100694.50
2023-04-22T04:22:18.566Z,100692.59
2023-04-22T04:25:21.284Z,100688.97
2023-04-22T04:28:22.835Z,100687.09
2023-04-22T04:31:27.820Z,100686.88
2023-04-22T04:34:29.427Z,100685.94
2023-04-22T04:37:31.093Z,100685.75
2023-04-22T04:40:33.932Z,100678.41
2023-04-22T04:43:35.825Z,100674.63
2023-04-22T04:46:37.885Z,100666.53
2023-04-22T04:49:40.267Z,100672.59
2023-04-22T04:52:42.495Z,100674.31
2023-04-22T04:55:44.087Z,100676.00
2023-04-22T04:58:45.643Z,100672.59
2023-04-22T05:01:47.233Z,100671.84
2023-04-22T05:04:48.899Z,100670.13
2023-04-22T05:07:51.902Z,100661.41
2023-04-22T05:10:53.460Z,100665.03
2023-04-22T05:13:56.428Z,100664.81
2023-04-22T05:16:58.536Z,100659.22
2023-04-22T05:20:00.413Z,100671.03
2023-04-22T05:23:01.984Z,100654.69
2023-04-22T05:26:03.654Z,100659.50
2023-04-22T05:29:05.391Z,100651.75
2023-04-22T05:32:08.558Z,100656.44
2023-04-22T05:35:11.112Z,100655.72
2023-04-22T05:38:12.919Z,100650.63
2023-04-22T05:41:14.489Z,100661.41
2023-04-22T05:44:17.639Z,100659.81
2023-04-22T05:47:19.487Z,100671.41
2023-04-22T05:50:22.738Z,100668.88
2023-04-22T05:53:24.910Z,100666.44
2023-04-22T05:56:26.652Z,100681.66
2023-04-22T05:59:28.301Z,100665.03
2023-04-22T06:02:29.999Z,100668.09
2023-04-22T06:05:31.943Z,100665.84
2023-04-22T06:08:33.551Z,100667.00
2023-04-22T06:11:35.159Z,100663.88
2023-04-22T06:14:36.739Z,100663.47
2023-04-22T06:17:39.383Z,100675.16
2023-04-22T06:20:41.053Z,100666.25
2023-04-22T06:23:42.568Z,100676.88
2023-04-22T06:26:44.213Z,100670.06
2023-04-22T06:29:45.830Z,100677.59
2023-04-22T06:32:47.423Z,100667.44
2023-04-22T06:35:48.989Z,100668.88
2023-04-22T06:38:50.592Z,100666.84
2023-04-22T06:41:52.155Z,100666.50
2023-04-22T06:44:53.687Z,100668.94
2023-04-22T06:47:55.429Z,100667.00
2023-04-22T06:50:57.488Z,100656.22
2023-04-22T06:53:59.161Z,100659.41
2023-04-22T06:57:01.600Z,100658.06
2023-04-22T07:00:04.830Z,100649.59
2023-04-22T07:03:06.471Z,100659.78
2023-04-22T07:06:08.665Z,100652.28
2023-04-22T07:09:10.316Z,100651.97
2023-04-22T07:12:11.897Z,100655.00
2023-04-22T07:15:13.600Z,100655.34
2023-04-22T07:18:15.135Z,100656.56
2023-04-22T07:21:16.728Z,100650.91
2023-04-22T07:24:18.318Z,100655.88
2023-04-22T07:27:19.862Z,100650.16
2023-04-22T07:30:21.546Z,100652.34
2023-04-22T07:33:23.537Z,100646.56
2023-04-22T07:36:25.251Z,100636.47
2023-04-22T07:39:26.984Z,100634.78
2023-04-22T07:42:28.766Z,100629.84
2023-04-22T07:45:30.387Z,100636.56
2023-04-22T07:48:31.987Z,100632.84
2023-04-22T07:51:33.574Z,100634.94
2023-04-22T07:54:35.204Z,100638.88
2023-04-22T07:57:38.865Z,100639.53
2023-04-22T08:00:40.509Z,100643.69
2023-04-22T08:03:42.579Z,100654.31
2023-04-22T08:06:44.218Z,100656.22
2023-04-22T08:09:45.806Z,100651.22
2023-04-22T08:12:47.661Z,100656.88
2023-04-22T08:15:49.260Z,100648.16
2023-04-22T08:18:52.285Z,100652.69
2023-04-22T08:21:53.858Z,100654.41
2023-04-22T08:24:55.419Z,100649.34
2023-04-22T08:27:57.289Z,100642.06
2023-04-22T08:30:58.944Z,100652.38
2023-04-22T08:34:00.678Z,100650.00
2023-04-22T08:37:02.618Z,100645.00
2023-04-22T08:40:04.900Z,100638.22
2023-04-22T08:43:07.134Z,100655.19
2023-04-22T08:46:08.840Z,100641.03
2023-04-22T08:49:10.742Z,100645.28
2023-04-22T08:52:15.201Z,100635.09
2023-04-22T08:55:16.850Z,100634.53
2023-04-22T08:58:18.521Z,100632.09
2023-04-22T09:01:21.531Z,100624.34
2023-04-22T09:04:23.393Z,100622.59
2023-04-22T09:07:28.097Z,100613.53
2023-04-22T09:10:34.236Z,100614.81
2023-04-22T09:13:36.106Z,100607.22
2023-04-22T09:16:44.569Z,100600.38
2023-04-22T09:19:46.318Z,100590.00
2023-04-22T09:22:49.920Z,100589.03
2023-04-22T09:25:51.768Z,100586.88
2023-04-22T09:28:56.127Z,100593.50
2023-04-22T09:31:57.785Z,100583.53
2023-04-22T09:34:59.415Z,100587.88
2023-04-22T09:38:02.997Z,100577.63
2023-04-22T09:41:10.309Z,100578.16
2023-04-22T09:44:16.025Z,100575.00
2023-04-22T09:47:17.643Z,100574.81
2023-04-22T09:50:25.631Z,100572.88
2023-04-22T09:53:27.312Z,100576.41
2023-04-22T09:56:48.237Z,100575.44
2023-04-22T09:59:53.172Z,100565.56
2023-04-22T10:02:54.838Z,100565.69
2023-04-22T10:05:56.910Z,100569.66
2023-04-22T10:08:59.839Z,100567.88
2023-04-22T10:12:02.020Z,100561.44
2023-04-22T10:15:07.984Z,100554.75
2023-04-22T10:18:13.700Z,100560.22
2023-04-22T10:21:17.200Z,100560.75
2023-04-22T10:24:19.625Z,100551.66
2023-04-22T10:27:22.452Z,100560.09
2023-04-22T10:30:29.176Z,100550.97
2023-04-22T10:33:35.225Z,100558.44
2023-04-22T10:37:05.320Z,100554.16
2023-04-22T10:40:16.007Z,100551.63
2023-04-22T10:43:19.647Z,100551.75
2023-04-22T10:46:34.552Z,100552.56
2023-04-22T10:49:36.628Z,100558.78
2023-04-22T10:52:38.468Z,100554.19
2023-04-22T10:55:53.316Z,100533.97
2023-04-22T10:58:56.530Z,100543.59
2023-04-22T11:02:16.902Z,100533.41
2023-04-22T11:05:27.495Z,100528.47
2023-04-22T11:08:29.300Z,100528.84
2023-04-22T11:11:30.897Z,100523.53
2023-04-22T11:14:32.918Z,100513.84
2023-04-22T11:17:35.458Z,100517.41
2023-04-22T11:20:37.467Z,100517.41
2023-04-22T11:23:38.985Z,100504.78
2023-04-22T11:26:41.407Z,100499.34
2023-04-22T11:29:42.944Z,100493.69
2023-04-22T11:32:47.625Z,100492.59
2023-04-22T11:35:50.634Z,100476.28
2023-04-22T11:38:56.322Z,100480.81
2023-04-22T11:41:58.290Z,100483.88
2023-04-22T11:44:59.794Z,100477.44
2023-04-22T11:48:02.884Z,100481.50
2023-04-22T11:51:12.214Z,100476.59
2023-04-22T11:54:13.767Z,100465.03
2023-04-22T11:57:17.747Z,100456.16
2023-04-22T12:00:19.532Z,100459.78
2023-04-22T12:03:24.703Z,100456.47
2023-04-22T12:06:32.326Z,100444.44
2023-04-22T12:09:34.492Z,100448.78
2023-04-22T12:12:39.579Z,100434.31
2023-04-22T12:15:45.397Z,100434.13
2023-04-22T12:18:55.948Z,100452.56
2023-04-22T12:21:57.995Z,100446.81
2023-04-22T12:25:00.717Z,100450.75
2023-04-22T12:28:02.372Z,100449.44
2023-04-22T12:31:04.212Z,100440.09
2023-04-22T12:34:06.228Z,100439.50
2023-04-22T12:37:07.947Z,100446.44
2023-04-22T12:40:10.366Z,100431.09
2023-04-22T12:43:12.332Z,100431.59
2023-04-22T12:46:13.928Z,100435.75
2023-04-22T12:49:15.940Z,100422.03
2023-04-22T12:52:17.587Z,100431.59
2023-04-22T12:55:20.953Z,100427.25
2023-04-22T12:58:22.720Z,100418.41
2023-04-22T13:01:24.378Z,100423.34
2023-04-22T13:04:26.109Z,100426.41
2023-04-22T13:07:27.773Z,100416.13
2023-04-22T13:10:30.126Z,100417.81
2023-04-22T13:13:31.684Z,100398.28
2023-04-22T13:16:33.296Z,100399.22
2023-04-22T13:19:35.477Z,100400.72
2023-04-22T13:22:37.102Z,100400.81
2023-04-22T13:25:38.918Z,100390.44
2023-04-22T13:28:40.488Z,100393.63
2023-04-22T13:31:43.718Z,100388.00
2023-04-22T13:34:45.929Z,100377.91
2023-04-22T13:37:47.591Z,100382.88
2023-04-22T13:40:49.174Z,100374.75
2023-04-22T13:43:54.308Z,100369.31
2023-04-22T13:46:55.882Z,100362.13
2023-04-22T13:49:58.054Z,100362.31
2023-04-22T13:52:59.637Z,100351.34
2023-04-22T13:56:01.217Z,100344.09
2023-04-22T13:59:02.845Z,100336.41
2023-04-22T14:02:04.490Z,100327.78
2023-04-22T14:05:07.530Z,100328.53
2023-04-22T14:08:09.136Z,100336.38
2023-04-22T14:11:11.185Z,100320.84
2023-04-22T14:14:12.706Z,100303.22
2023-04-22T14:17:14.381Z,100307.69
2023-04-22T14:20:15.996Z,100304.59
2023-04-22T14:23:18.381Z,100305.56
2023-04-22T14:26:20.175Z,100303.16
2023-04-22T14:29:21.784Z,100301.38
2023-04-22T14:32:25.179Z,100294.00
2023-04-22T14:35:27.015Z,100289.03
2023-04-22T14:38:29.693Z,100286.13
2023-04-22T14:41:31.368Z,100284.38
2023-04-22T14:44:32.994Z,100277.44
2023-04-22T14:47:34.539Z,100270.84
2023-04-22T14:50:36.188Z,100270.97
2023-04-22T14:53:37.822Z,100266.38
2023-04-22T14:56:39.589Z,100266.75
2023-04-22T14:59:41.794Z,100259.03
2023-04-22T15:02:44.556Z,100252.13
2023-04-22T15:05:49.351Z,100256.03
2023-04-22T15:08:54.028Z,100246.97
2023-04-22T15:11:56.534Z,100242.69
2023-04-22T15:14:58.195Z,100243.47
2023-04-22T15:17:59.934Z,100252.94
2023-04-22T15:21:03.383Z,100245.41
2023-04-22T15:24:05.002Z,100238.47
2023-04-22T15:27:07.476Z,100233.91
2023-04-22T15:30:11.259Z,100235.03
2023-04-22T15:33:12.833Z,100232.63
2023-04-22T15:36:18.268Z,100230.56
2023-04-22T15:39:20.362Z,100217.88
2023-04-22T15:42:21.948Z,100215.81
2023-04-22T15:45:23.483Z,100209.81
2023-04-22T15:48:25.297Z,100206.88
2023-04-22T15:51:28.104Z,100205.41
2023-04-22T15:54:29.830Z,100200.13
2023-04-22T15:57:34.482Z,100198.97
2023-04-22T16:00:37.251Z,100187.66
2023-04-22T16:03:39.014Z,100188.03
2023-04-22T16:06:40.674Z,100186.53
2023-04-22T16:09:42.345Z,100184.03
2023-04-22T16:12:44.170Z,100181.13
2023-04-22T16:15:46.548Z,100179.91
2023-04-22T16:18:48.141Z,100180.09
2023-04-22T16:21:50.516Z,100183.00
2023-04-22T16:24:52.122Z,100175.69
2023-04-22T16:27:53.711Z,100180.31
2023-04-22T16:30:55.311Z,100165.44
2023-04-22T16:33:56.966Z,100166.84
2023-04-22T16:36:58.548Z,100172.66
2023-04-22T16:40:01.261Z,100168.66
2023-04-22T16:43:05.224Z,100162.59
2023-04-22T16:46:06.848Z,100161.91
2023-04-22T16:49:10.369Z,100166.50
2023-04-22T16:52:12.344Z,100160.41
2023-04-22T16:55:14.492Z,100155.19
2023-04-22T16:58:16.192Z,100157.25
2023-04-22T17:01:17.818Z,100162.69
2023-04-22T17:04:19.737Z,100160.97
2023-04-22T17:07:21.458Z,100150.72
2023-04-22T17:10:23.189Z,100155.66
2023-04-22T17:13:24.715Z,100164.34
2023-04-22T17:16:26.626Z,100161.19
2023-04-22T17:19:28.363Z,100162.41
2023-04-22T17:22:30.076Z,100162.56
2023-04-22T17:25:31.776Z,100162.13
2023-04-22T17:28:33.351Z,100170.41
2023-04-22T17:31:35.058Z,100168.75
2023-04-22T17:34:36.698Z,100166.19
2023-04-22T17:37:38.277Z,100159.09
2023-04-22T17:40:40.009Z,100176.56
2023-04-22T17:43:41.575Z,100186.06
2023-04-22T17:46:43.384Z,100199.97
2023-04-22T17:49:45.010Z,100216.28
2023-04-22T17:52:46.707Z,100253.56
2023-04-22T17:55:48.264Z,100269.28
2023-04-22T17:58:49.809Z,100270.09
2023-04-22T18:01:51.503Z,100263.50
2023-04-22T18:04:53.166Z,100279.88
2023-04-22T18:08:01.703Z,100281.94
2023-04-22T18:11:05.032Z,100283.03
2023-04-22T18:14:07.930Z,100287.03
2023-04-22T18:17:09.519Z,100294.16
2023-04-22T18:20:18.276Z,100299.22
2023-04-22T18:23:20.555Z,100297.31
2023-04-22T18:26:23.050Z,100320.38
2023-04-22T18:29:24.590Z,100343.84
2023-04-22T18:32:26.226Z,100344.47
2023-04-22T18:35:27.814Z,100324.22
2023-04-22T18:38:29.402Z,100325.03
2023-04-22T18:41:31.351Z,100337.59
2023-04-22T18:44:32.937Z,100338.19
2023-04-22T18:47:34.629Z,100329.53
2023-04-22T18:50:36.481Z,100347.75
2023-04-22T18:53:38.188Z,100360.47
2023-04-22T18:56:39.838Z,100351.50
2023-04-22T18:59:42.279Z,100364.19
2023-04-22T19:02:46.021Z,100360.44
2023-04-22T19:05:48.173Z,100360.91
2023-04-22T19:08:51.819Z,100361.19
2023-04-22T19:11:53.603Z,100361.50
2023-04-22T19:14:55.315Z,100361.81
2023-04-22T19:17:56.898Z,100360.06
2023-04-22T19:20:58.527Z,100357.97
2023-04-22T19:24:00.415Z,100346.13
2023-04-22T19:27:02.849Z,100327.78
2023-04-22T19:30:06.567Z,100336.31
2023-04-22T19:33:08.176Z,100343.25
2023-04-22T19:36:10.122Z,100343.72
2023-04-22T19:39:11.836Z,100325.34
2023-04-22T19:42:13.518Z,100333.88
2023-04-22T19:45:15.270Z,100324.59
2023-04-22T19:48:17.303Z,100327.56
2023-04-22T19:51:19.319Z,100336.88
2023-04-22T19:54:22.121Z,100337.78
2023-04-22T19:57:24.835Z,100333.88
2023-04-22T20:00:26.580Z,100323.13
2023-04-22T20:03:28.683Z,100318.38
2023-04-22T20:06:31.644Z,100308.59
2023-04-22T20:09:33.344Z,100314.75
2023-04-22T20:12:37.060Z,100313.97
2023-04-22T20:15:38.997Z,100311.34
2023-04-22T20:18:40.831Z,100304.22
2023-04-22T20:21:43.464Z,100295.03
2023-04-22T20:24:45.757Z,100290.28
2023-04-22T20:27:48.412Z,100284.81
2023-04-22T20:30:50.294Z,100283.03
2023-04-22T20:33:52.863Z,100284.91
2023-04-22T20:36:55.025Z,100295.50
2023-04-22T20:39:58.765Z,100303.16
2023-04-22T20:43:00.436Z,100314.50
2023-04-22T20:46:02.232Z,100314.78
2023-04-22T20:49:03.850Z,100326.47
2023-04-22T20:52:05.573Z,100329.44
2023-04-22T20:55:07.435Z,100333.69
2023-04-22T20:58:09.295Z,100339.03
2023-04-22T21:01:11.098Z,100341.03
2023-04-22T21:04:13.126Z,100342.16
2023-04-22T21:07:16.227Z,100344.84
2023-04-22T21:10:19.502Z,100340.19
2023-04-22T21:13:22.254Z,100339.19
2023-04-22T21:16:29.831Z,100331.44
2023-04-22T21:19:34.140Z,100332.28
2023-04-22T21:22:37.606Z,100337.94
2023-04-22T21:25:39.259Z,100334.41
2023-04-22T21:28:41.060Z,100342.59
2023-04-22T21:31:42.629Z,100334.84
2023-04-22T21:34:44.795Z,100327.53
2023-04-22T21:37:46.630Z,100332.09
2023-04-22T21:40:48.908Z,100333.63
2023-04-22T21:43:50.484Z,100333.88
2023-04-22T21:46:52.025Z,100331.06
2023-04-22T21:49:53.552Z,100336.56
2023-04-22T21:52:55.275Z,100328.97
2023-04-22T21:55:56.818Z,100327.97
2023-04-22T21:58:58.453Z,100334.78
2023-04-22T22:02:00.213Z,100328.72
2023-04-22T22:05:02.049Z,100340.44
2023-04-22T22:08:04.056Z,100332.81
2023-04-22T22:11:05.980Z,100339.31
2023-04-22T22:14:07.569Z,100334.53
2023-04-22T22:17:10.191Z,100338.84
2023-04-22T22:20:14.322Z,100335.06
2023-04-22T22:23:16.059Z,100348.91
2023-04-22T22:26:17.629Z,100333.69
2023-04-22T22:29:19.138Z,100338.63
2023-04-22T22:32:21.216Z,100342.88
2023-04-22T22:35:22.738Z,100334.59
2023-04-22T22:38:24.310Z,100335.88
2023-04-22T22:41:25.850Z,100332.78
2023-04-22T22:44:27.440Z,100331.34
2023-04-22T22:47:29.021Z,100331.09
2023-04-22T22:50:30.599Z,100333.19
2023-04-22T22:53:34.277Z,100323.59
2023-04-22T22:56:35.893Z,100332.94
2023-04-22T22:59:39.147Z,100332.34
2023-04-22T23:02:41.041Z,100329.25
2023-04-22T23:05:42.712Z,100322.66
2023-04-22T23:08:44.275Z,100332.19
2023-04-22T23:11:48.317Z,100347.03
2023-04-22T23:14:49.933Z,100348.69
2023-04-22T23:17:51.775Z,100355.75
2023-04-22T23:20:53.839Z,100343.16
2023-04-22T23:23:56.812Z,100356.44
2023-04-22T23:26:58.612Z,100349.09
2023-04-22T23:30:00.681Z,100352.28
2023-04-22T23:33:03.681Z,100348.47
2023-04-22T23:36:06.375Z,100357.03
2023-04-22T23:39:09.822Z,100359.56
2023-04-22T23:42:11.432Z,100365.84
2023-04-22T23:45:13.372Z,100361.41
2023-04-22T23:48:15.085Z,100371.09
2023-04-22T23:51:16.862Z,100372.72
2023-04-22T23:54:18.725Z,100377.78
2023-04-22T23:57:20.626Z,100381.69
